sensor_id;sensor_type;location;lat;lon;timestamp;P1;durP1;ratioP1;P2;durP2;ratioP2
1446;SDS011;717;51.522;7.266;2023-06-24T00:01:17;6.07;;;5.40;;
1446;SDS011;717;51.522;7.266;2023-06-24T00:03:45;8.15;;;6.20;;
1446;SDS011;717;51.522;7.266;2023-06-24T00:06:18;6.22;;;5.63;;
1446;SDS011;717;51.522;7.266;2023-06-24T00:08:47;5.97;;;5.47;;
1446;SDS011;717;51.522;7.266;2023-06-24T00:11:19;6.05;;;5.45;;
1446;SDS011;717;51.522;7.266;2023-06-24T00:13:48;6.07;;;5.07;;
1446;SDS011;717;51.522;7.266;2023-06-24T00:16:16;6.05;;;5.45;;
1446;SDS011;717;51.522;7.266;2023-06-24T00:18:52;6.32;;;5.72;;
1446;SDS011;717;51.522;7.266;2023-06-24T00:21:26;6.18;;;5.35;;
1446;SDS011;717;51.522;7.266;2023-06-24T00:23:55;6.03;;;5.43;;
1446;SDS011;717;51.522;7.266;2023-06-24T00:26:32;5.78;;;5.28;;
1446;SDS011;717;51.522;7.266;2023-06-24T00:29:00;6.15;;;5.20;;
1446;SDS011;717;51.522;7.266;2023-06-24T00:31:29;5.97;;;5.45;;
1446;SDS011;717;51.522;7.266;2023-06-24T00:33:57;5.97;;;5.47;;
1446;SDS011;717;51.522;7.266;2023-06-24T00:36:26;5.68;;;5.20;;
1446;SDS011;717;51.522;7.266;2023-06-24T00:38:57;6.30;;;5.70;;
1446;SDS011;717;51.522;7.266;2023-06-24T00:41:29;6.05;;;5.47;;
1446;SDS011;717;51.522;7.266;2023-06-24T00:44:01;5.72;;;5.32;;
1446;SDS011;717;51.522;7.266;2023-06-24T00:46:29;6.30;;;5.32;;
1446;SDS011;717;51.522;7.266;2023-06-24T00:48:58;6.50;;;5.53;;
1446;SDS011;717;51.522;7.266;2023-06-24T00:51:28;6.03;;;5.43;;
1446;SDS011;717;51.522;7.266;2023-06-24T00:53:59;7.22;;;5.43;;
1446;SDS011;717;51.522;7.266;2023-06-24T00:56:29;6.18;;;5.57;;
1446;SDS011;717;51.522;7.266;2023-06-24T00:59:03;6.07;;;5.30;;
1446;SDS011;717;51.522;7.266;2023-06-24T01:01:34;5.70;;;5.20;;
1446;SDS011;717;51.522;7.266;2023-06-24T01:04:03;6.05;;;5.47;;
1446;SDS011;717;51.522;7.266;2023-06-24T01:06:34;6.18;;;5.30;;
1446;SDS011;717;51.522;7.266;2023-06-24T01:09:08;7.13;;;5.35;;
1446;SDS011;717;51.522;7.266;2023-06-24T01:11:40;6.85;;;6.10;;
1446;SDS011;717;51.522;7.266;2023-06-24T01:14:09;6.00;;;5.50;;
1446;SDS011;717;51.522;7.266;2023-06-24T01:16:39;5.20;;;4.78;;
1446;SDS011;717;51.522;7.266;2023-06-24T01:19:19;5.85;;;5.35;;
1446;SDS011;717;51.522;7.266;2023-06-24T01:22:06;7.32;;;5.75;;
1446;SDS011;717;51.522;7.266;2023-06-24T01:24:53;5.97;;;5.43;;
1446;SDS011;717;51.522;7.266;2023-06-24T01:27:39;6.05;;;5.55;;
1446;SDS011;717;51.522;7.266;2023-06-24T01:30:28;6.28;;;5.68;;
1446;SDS011;717;51.522;7.266;2023-06-24T01:33:21;6.55;;;5.70;;
1446;SDS011;717;51.522;7.266;2023-06-24T01:35:53;6.20;;;5.70;;
1446;SDS011;717;51.522;7.266;2023-06-24T01:38:24;5.70;;;5.10;;
1446;SDS011;717;51.522;7.266;2023-06-24T01:41:02;6.03;;;5.43;;
1446;SDS011;717;51.522;7.266;2023-06-24T01:43:32;6.00;;;5.50;;
1446;SDS011;717;51.522;7.266;2023-06-24T01:46:04;6.00;;;5.50;;
1446;SDS011;717;51.522;7.266;2023-06-24T01:48:37;7.35;;;5.55;;
1446;SDS011;717;51.522;7.266;2023-06-24T01:51:11;8.68;;;6.00;;
1446;SDS011;717;51.522;7.266;2023-06-24T01:53:43;6.28;;;5.57;;
1446;SDS011;717;51.522;7.266;2023-06-24T01:56:16;6.82;;;5.75;;
1446;SDS011;717;51.522;7.266;2023-06-24T01:58:46;6.53;;;5.50;;
1446;SDS011;717;51.522;7.266;2023-06-24T02:01:18;6.75;;;5.43;;
1446;SDS011;717;51.522;7.266;2023-06-24T02:03:51;6.35;;;5.85;;
1446;SDS011;717;51.522;7.266;2023-06-24T02:06:21;5.88;;;5.38;;
1446;SDS011;717;51.522;7.266;2023-06-24T02:08:51;6.45;;;5.90;;
1446;SDS011;717;51.522;7.266;2023-06-24T02:11:21;6.47;;;5.38;;
1446;SDS011;717;51.522;7.266;2023-06-24T02:13:51;6.78;;;6.07;;
1446;SDS011;717;51.522;7.266;2023-06-24T02:16:22;6.20;;;5.55;;
1446;SDS011;717;51.522;7.266;2023-06-24T02:18:54;7.10;;;6.03;;
1446;SDS011;717;51.522;7.266;2023-06-24T02:21:24;6.18;;;5.68;;
1446;SDS011;717;51.522;7.266;2023-06-24T02:23:53;6.07;;;5.47;;
1446;SDS011;717;51.522;7.266;2023-06-24T02:26:22;6.82;;;6.22;;
1446;SDS011;717;51.522;7.266;2023-06-24T02:28:52;6.40;;;5.80;;
1446;SDS011;717;51.522;7.266;2023-06-24T02:31:22;6.40;;;5.75;;
1446;SDS011;717;51.522;7.266;2023-06-24T02:33:51;7.05;;;6.35;;
1446;SDS011;717;51.522;7.266;2023-06-24T02:36:22;7.18;;;5.60;;
1446;SDS011;717;51.522;7.266;2023-06-24T02:38:51;5.97;;;5.47;;
1446;SDS011;717;51.522;7.266;2023-06-24T02:41:20;7.25;;;6.30;;
1446;SDS011;717;51.522;7.266;2023-06-24T02:43:48;7.07;;;5.78;;
1446;SDS011;717;51.522;7.266;2023-06-24T02:46:17;5.85;;;5.35;;
1446;SDS011;717;51.522;7.266;2023-06-24T02:48:46;5.97;;;5.47;;
1446;SDS011;717;51.522;7.266;2023-06-24T02:51:17;6.88;;;5.88;;
1446;SDS011;717;51.522;7.266;2023-06-24T02:53:49;6.47;;;5.88;;
1446;SDS011;717;51.522;7.266;2023-06-24T02:56:18;6.75;;;6.05;;
1446;SDS011;717;51.522;7.266;2023-06-24T02:58:49;7.18;;;6.45;;
1446;SDS011;717;51.522;7.266;2023-06-24T03:01:19;7.43;;;5.78;;
1446;SDS011;717;51.522;7.266;2023-06-24T03:03:49;6.35;;;5.85;;
1446;SDS011;717;51.522;7.266;2023-06-24T03:06:20;7.85;;;6.03;;
1446;SDS011;717;51.522;7.266;2023-06-24T03:08:52;6.82;;;5.57;;
1446;SDS011;717;51.522;7.266;2023-06-24T03:11:21;6.85;;;6.10;;
1446;SDS011;717;51.522;7.266;2023-06-24T03:13:50;6.35;;;5.72;;
1446;SDS011;717;51.522;7.266;2023-06-24T03:16:18;6.55;;;5.82;;
1446;SDS011;717;51.522;7.266;2023-06-24T03:18:47;6.28;;;5.65;;
1446;SDS011;717;51.522;7.266;2023-06-24T03:21:15;6.05;;;5.45;;
1446;SDS011;717;51.522;7.266;2023-06-24T03:23:44;7.90;;;6.50;;
1446;SDS011;717;51.522;7.266;2023-06-24T03:26:15;7.03;;;6.40;;
1446;SDS011;717;51.522;7.266;2023-06-24T03:28:43;7.63;;;5.63;;
1446;SDS011;717;51.522;7.266;2023-06-24T03:31:12;6.82;;;6.13;;
1446;SDS011;717;51.522;7.266;2023-06-24T03:33:42;7.30;;;5.95;;
1446;SDS011;717;51.522;7.266;2023-06-24T03:36:11;6.43;;;5.93;;
1446;SDS011;717;51.522;7.266;2023-06-24T03:38:40;6.50;;;5.90;;
1446;SDS011;717;51.522;7.266;2023-06-24T03:41:09;6.72;;;5.70;;
1446;SDS011;717;51.522;7.266;2023-06-24T03:43:40;6.25;;;5.65;;
1446;SDS011;717;51.522;7.266;2023-06-24T03:46:10;6.65;;;6.00;;
1446;SDS011;717;51.522;7.266;2023-06-24T03:48:38;7.03;;;6.32;;
1446;SDS011;717;51.522;7.266;2023-06-24T03:51:07;7.53;;;6.82;;
1446;SDS011;717;51.522;7.266;2023-06-24T03:53:35;6.45;;;5.93;;
1446;SDS011;717;51.522;7.266;2023-06-24T03:56:04;7.05;;;6.35;;
1446;SDS011;717;51.522;7.266;2023-06-24T03:58:32;7.38;;;6.00;;
1446;SDS011;717;51.522;7.266;2023-06-24T04:01:03;7.28;;;6.35;;
1446;SDS011;717;51.522;7.266;2023-06-24T04:03:34;7.43;;;6.28;;
1446;SDS011;717;51.522;7.266;2023-06-24T04:06:02;6.80;;;6.10;;
1446;SDS011;717;51.522;7.266;2023-06-24T04:08:31;6.60;;;5.97;;
1446;SDS011;717;51.522;7.266;2023-06-24T04:10:59;6.55;;;5.95;;
1446;SDS011;717;51.522;7.266;2023-06-24T04:13:28;6.80;;;6.10;;
1446;SDS011;717;51.522;7.266;2023-06-24T04:15:57;7.03;;;6.35;;
1446;SDS011;717;51.522;7.266;2023-06-24T04:18:28;6.07;;;5.55;;
1446;SDS011;717;51.522;7.266;2023-06-24T04:20:57;9.38;;;6.20;;
1446;SDS011;717;51.522;7.266;2023-06-24T04:23:25;7.63;;;6.03;;
1446;SDS011;717;51.522;7.266;2023-06-24T04:25:54;8.93;;;6.65;;
1446;SDS011;717;51.522;7.266;2023-06-24T04:28:22;8.90;;;6.82;;
1446;SDS011;717;51.522;7.266;2023-06-24T04:30:51;6.90;;;6.30;;
1446;SDS011;717;51.522;7.266;2023-06-24T04:33:20;6.68;;;6.03;;
1446;SDS011;717;51.522;7.266;2023-06-24T04:35:51;6.97;;;6.07;;
1446;SDS011;717;51.522;7.266;2023-06-24T04:38:20;6.95;;;6.25;;
1446;SDS011;717;51.522;7.266;2023-06-24T04:40:48;6.93;;;6.05;;
1446;SDS011;717;51.522;7.266;2023-06-24T04:43:18;7.80;;;6.10;;
1446;SDS011;717;51.522;7.266;2023-06-24T04:45:46;7.15;;;6.32;;
1446;SDS011;717;51.522;7.266;2023-06-24T04:48:15;7.13;;;6.13;;
1446;SDS011;717;51.522;7.266;2023-06-24T04:50:43;6.95;;;6.07;;
1446;SDS011;717;51.522;7.266;2023-06-24T04:53:14;7.05;;;5.97;;
1446;SDS011;717;51.522;7.266;2023-06-24T04:55:43;8.13;;;6.15;;
1446;SDS011;717;51.522;7.266;2023-06-24T04:58:11;6.30;;;5.70;;
1446;SDS011;717;51.522;7.266;2023-06-24T05:00:40;7.07;;;5.85;;
1446;SDS011;717;51.522;7.266;2023-06-24T05:03:08;5.88;;;5.28;;
1446;SDS011;717;51.522;7.266;2023-06-24T05:05:37;6.35;;;5.68;;
1446;SDS011;717;51.522;7.266;2023-06-24T05:08:06;6.38;;;5.78;;
1446;SDS011;717;51.522;7.266;2023-06-24T05:10:38;6.40;;;5.65;;
1446;SDS011;717;51.522;7.266;2023-06-24T05:13:06;5.45;;;4.93;;
1446;SDS011;717;51.522;7.266;2023-06-24T05:15:35;5.38;;;4.88;;
1446;SDS011;717;51.522;7.266;2023-06-24T05:18:03;5.45;;;4.95;;
1446;SDS011;717;51.522;7.266;2023-06-24T05:20:32;5.72;;;5.22;;
1446;SDS011;717;51.522;7.266;2023-06-24T05:23:00;5.90;;;5.30;;
1446;SDS011;717;51.522;7.266;2023-06-24T05:25:29;5.72;;;5.05;;
1446;SDS011;717;51.522;7.266;2023-06-24T05:28:00;5.95;;;5.25;;
1446;SDS011;717;51.522;7.266;2023-06-24T05:30:28;5.80;;;5.18;;
1446;SDS011;717;51.522;7.266;2023-06-24T05:32:57;5.80;;;5.10;;
1446;SDS011;717;51.522;7.266;2023-06-24T05:35:25;5.93;;;5.00;;
1446;SDS011;717;51.522;7.266;2023-06-24T05:37:54;5.28;;;4.72;;
1446;SDS011;717;51.522;7.266;2023-06-24T05:40:22;5.78;;;5.10;;
1446;SDS011;717;51.522;7.266;2023-06-24T05:42:51;5.25;;;4.80;;
1446;SDS011;717;51.522;7.266;2023-06-24T05:45:22;6.68;;;4.30;;
1446;SDS011;717;51.522;7.266;2023-06-24T05:47:50;5.10;;;4.57;;
1446;SDS011;717;51.522;7.266;2023-06-24T05:50:19;5.70;;;4.85;;
1446;SDS011;717;51.522;7.266;2023-06-24T05:52:47;5.95;;;4.55;;
1446;SDS011;717;51.522;7.266;2023-06-24T05:55:16;5.78;;;5.18;;
1446;SDS011;717;51.522;7.266;2023-06-24T05:57:45;6.10;;;4.97;;
1446;SDS011;717;51.522;7.266;2023-06-24T06:00:14;6.40;;;4.43;;
1446;SDS011;717;51.522;7.266;2023-06-24T06:02:45;5.75;;;4.75;;
1446;SDS011;717;51.522;7.266;2023-06-24T06:05:14;6.78;;;4.45;;
1446;SDS011;717;51.522;7.266;2023-06-24T06:07:42;4.47;;;4.03;;
1446;SDS011;717;51.522;7.266;2023-06-24T06:10:11;5.22;;;4.70;;
1446;SDS011;717;51.522;7.266;2023-06-24T06:12:42;5.18;;;4.38;;
1446;SDS011;717;51.522;7.266;2023-06-24T06:15:10;5.13;;;4.47;;
1446;SDS011;717;51.522;7.266;2023-06-24T06:17:39;4.78;;;4.15;;
1446;SDS011;717;51.522;7.266;2023-06-24T06:20:11;4.63;;;4.22;;
1446;SDS011;717;51.522;7.266;2023-06-24T06:22:39;4.57;;;4.18;;
1446;SDS011;717;51.522;7.266;2023-06-24T06:25:08;5.45;;;4.57;;
1446;SDS011;717;51.522;7.266;2023-06-24T06:27:36;5.25;;;4.75;;
1446;SDS011;717;51.522;7.266;2023-06-24T06:30:06;4.60;;;4.20;;
1446;SDS011;717;51.522;7.266;2023-06-24T06:32:35;5.65;;;4.70;;
1446;SDS011;717;51.522;7.266;2023-06-24T06:35:04;4.30;;;3.78;;
1446;SDS011;717;51.522;7.266;2023-06-24T06:37:37;6.07;;;4.45;;
1446;SDS011;717;51.522;7.266;2023-06-24T06:40:06;4.78;;;4.32;;
1446;SDS011;717;51.522;7.266;2023-06-24T06:42:35;4.80;;;4.32;;
1446;SDS011;717;51.522;7.266;2023-06-24T06:45:04;5.70;;;4.72;;
1446;SDS011;717;51.522;7.266;2023-06-24T06:47:34;6.43;;;5.47;;
1446;SDS011;717;51.522;7.266;2023-06-24T06:50:02;6.50;;;5.68;;
1446;SDS011;717;51.522;7.266;2023-06-24T06:52:32;5.82;;;5.28;;
1446;SDS011;717;51.522;7.266;2023-06-24T06:55:04;6.88;;;5.88;;
1446;SDS011;717;51.522;7.266;2023-06-24T06:57:33;6.75;;;5.15;;
1446;SDS011;717;51.522;7.266;2023-06-24T07:00:02;5.95;;;5.05;;
1446;SDS011;717;51.522;7.266;2023-06-24T07:02:31;6.00;;;5.20;;
1446;SDS011;717;51.522;7.266;2023-06-24T07:04:59;6.72;;;5.30;;
1446;SDS011;717;51.522;7.266;2023-06-24T07:07:28;6.05;;;5.28;;
1446;SDS011;717;51.522;7.266;2023-06-24T07:09:57;6.97;;;5.70;;
1446;SDS011;717;51.522;7.266;2023-06-24T07:12:28;6.72;;;5.93;;
1446;SDS011;717;51.522;7.266;2023-06-24T07:14:57;7.57;;;6.47;;
1446;SDS011;717;51.522;7.266;2023-06-24T07:17:25;6.95;;;6.25;;
1446;SDS011;717;51.522;7.266;2023-06-24T07:19:54;7.88;;;7.07;;
1446;SDS011;717;51.522;7.266;2023-06-24T07:22:22;7.22;;;6.53;;
1446;SDS011;717;51.522;7.266;2023-06-24T07:24:51;7.10;;;5.70;;
1446;SDS011;717;51.522;7.266;2023-06-24T07:27:21;6.72;;;6.10;;
1446;SDS011;717;51.522;7.266;2023-06-24T07:29:52;6.85;;;6.25;;
1446;SDS011;717;51.522;7.266;2023-06-24T07:32:21;7.13;;;6.43;;
1446;SDS011;717;51.522;7.266;2023-06-24T07:34:49;7.03;;;6.40;;
1446;SDS011;717;51.522;7.266;2023-06-24T07:37:20;7.13;;;6.40;;
1446;SDS011;717;51.522;7.266;2023-06-24T07:39:49;6.68;;;6.07;;
1446;SDS011;717;51.522;7.266;2023-06-24T07:42:17;7.35;;;6.65;;
1446;SDS011;717;51.522;7.266;2023-06-24T07:44:46;7.55;;;6.20;;
1446;SDS011;717;51.522;7.266;2023-06-24T07:47:18;7.88;;;6.88;;
1446;SDS011;717;51.522;7.266;2023-06-24T07:49:46;8.40;;;6.65;;
1446;SDS011;717;51.522;7.266;2023-06-24T07:52:15;7.55;;;6.82;;
1446;SDS011;717;51.522;7.266;2023-06-24T07:54:43;7.32;;;6.57;;
1446;SDS011;717;51.522;7.266;2023-06-24T07:57:12;8.57;;;7.68;;
1446;SDS011;717;51.522;7.266;2023-06-24T07:59:42;9.35;;;8.43;;
1446;SDS011;717;51.522;7.266;2023-06-24T08:02:10;7.65;;;6.95;;
1446;SDS011;717;51.522;7.266;2023-06-24T08:04:42;8.18;;;7.18;;
1446;SDS011;717;51.522;7.266;2023-06-24T08:07:10;10.32;;;9.23;;
1446;SDS011;717;51.522;7.266;2023-06-24T08:09:40;9.88;;;8.68;;
1446;SDS011;717;51.522;7.266;2023-06-24T08:12:09;9.82;;;8.43;;
1446;SDS011;717;51.522;7.266;2023-06-24T08:14:38;9.18;;;8.27;;
1446;SDS011;717;51.522;7.266;2023-06-24T08:17:06;9.82;;;8.82;;
1446;SDS011;717;51.522;7.266;2023-06-24T08:19:35;9.90;;;8.70;;
1446;SDS011;717;51.522;7.266;2023-06-24T08:22:06;9.98;;;8.90;;
1446;SDS011;717;51.522;7.266;2023-06-24T08:24:35;9.82;;;8.57;;
1446;SDS011;717;51.522;7.266;2023-06-24T08:27:04;9.32;;;8.30;;
1446;SDS011;717;51.522;7.266;2023-06-24T08:29:33;8.82;;;8.02;;
1446;SDS011;717;51.522;7.266;2023-06-24T08:32:03;9.63;;;8.73;;
1446;SDS011;717;51.522;7.266;2023-06-24T08:34:32;9.35;;;8.35;;
1446;SDS011;717;51.522;7.266;2023-06-24T08:37:01;14.15;;;10.90;;
1446;SDS011;717;51.522;7.266;2023-06-24T08:39:32;11.27;;;10.18;;
1446;SDS011;717;51.522;7.266;2023-06-24T08:42:01;10.80;;;9.70;;
1446;SDS011;717;51.522;7.266;2023-06-24T08:44:31;11.35;;;9.18;;
1446;SDS011;717;51.522;7.266;2023-06-24T08:46:59;10.75;;;9.63;;
1446;SDS011;717;51.522;7.266;2023-06-24T08:49:28;11.70;;;9.63;;
1446;SDS011;717;51.522;7.266;2023-06-24T08:52:00;11.20;;;10.00;;
1446;SDS011;717;51.522;7.266;2023-06-24T08:54:34;10.95;;;9.82;;
1446;SDS011;717;51.522;7.266;2023-06-24T08:57:04;12.15;;;9.43;;
1446;SDS011;717;51.522;7.266;2023-06-24T08:59:36;9.88;;;8.45;;
1446;SDS011;717;51.522;7.266;2023-06-24T09:02:05;10.43;;;9.43;;
1446;SDS011;717;51.522;7.266;2023-06-24T09:04:34;8.60;;;7.15;;
1446;SDS011;717;51.522;7.266;2023-06-24T09:07:03;9.48;;;7.78;;
1446;SDS011;717;51.522;7.266;2023-06-24T09:09:35;8.93;;;7.95;;
1446;SDS011;717;51.522;7.266;2023-06-24T09:12:11;9.60;;;6.85;;
1446;SDS011;717;51.522;7.266;2023-06-24T09:14:41;10.68;;;8.10;;
1446;SDS011;717;51.522;7.266;2023-06-24T09:17:15;8.43;;;7.25;;
1446;SDS011;717;51.522;7.266;2023-06-24T09:19:46;8.73;;;6.55;;
1446;SDS011;717;51.522;7.266;2023-06-24T09:22:14;8.50;;;6.35;;
1446;SDS011;717;51.522;7.266;2023-06-24T09:24:47;7.35;;;6.00;;
1446;SDS011;717;51.522;7.266;2023-06-24T09:27:16;7.70;;;6.47;;
1446;SDS011;717;51.522;7.266;2023-06-24T09:29:47;7.97;;;6.50;;
1446;SDS011;717;51.522;7.266;2023-06-24T09:32:16;8.43;;;6.30;;
1446;SDS011;717;51.522;7.266;2023-06-24T09:34:44;8.48;;;5.78;;
1446;SDS011;717;51.522;7.266;2023-06-24T09:37:20;6.82;;;6.05;;
1446;SDS011;717;51.522;7.266;2023-06-24T09:39:58;7.57;;;6.05;;
1446;SDS011;717;51.522;7.266;2023-06-24T09:42:30;6.00;;;5.38;;
1446;SDS011;717;51.522;7.266;2023-06-24T09:44:58;6.13;;;5.53;;
1446;SDS011;717;51.522;7.266;2023-06-24T09:47:32;5.93;;;5.32;;
1446;SDS011;717;51.522;7.266;2023-06-24T09:50:01;7.22;;;5.18;;
1446;SDS011;717;51.522;7.266;2023-06-24T09:52:29;6.28;;;5.68;;
1446;SDS011;717;51.522;7.266;2023-06-24T09:55:05;5.95;;;5.10;;
1446;SDS011;717;51.522;7.266;2023-06-24T09:57:34;5.88;;;5.20;;
1446;SDS011;717;51.522;7.266;2023-06-24T10:00:05;6.65;;;4.95;;
1446;SDS011;717;51.522;7.266;2023-06-24T10:02:35;5.68;;;4.95;;
1446;SDS011;717;51.522;7.266;2023-06-24T10:05:04;5.70;;;4.60;;
1446;SDS011;717;51.522;7.266;2023-06-24T10:07:33;6.28;;;4.32;;
1446;SDS011;717;51.522;7.266;2023-06-24T10:10:07;6.68;;;5.03;;
1446;SDS011;717;51.522;7.266;2023-06-24T10:12:36;6.90;;;4.47;;
1446;SDS011;717;51.522;7.266;2023-06-24T10:15:05;4.53;;;4.10;;
1446;SDS011;717;51.522;7.266;2023-06-24T10:17:34;5.13;;;3.88;;
1446;SDS011;717;51.522;7.266;2023-06-24T10:20:03;5.72;;;3.95;;
1446;SDS011;717;51.522;7.266;2023-06-24T10:22:33;4.00;;;3.60;;
1446;SDS011;717;51.522;7.266;2023-06-24T10:25:02;5.18;;;3.65;;
1446;SDS011;717;51.522;7.266;2023-06-24T10:27:38;4.30;;;3.55;;
1446;SDS011;717;51.522;7.266;2023-06-24T10:30:08;7.00;;;4.03;;
1446;SDS011;717;51.522;7.266;2023-06-24T10:32:44;5.80;;;3.65;;
1446;SDS011;717;51.522;7.266;2023-06-24T10:35:22;5.97;;;4.05;;
1446;SDS011;717;51.522;7.266;2023-06-24T10:37:55;5.88;;;3.70;;
1446;SDS011;717;51.522;7.266;2023-06-24T10:40:40;7.43;;;3.63;;
1446;SDS011;717;51.522;7.266;2023-06-24T10:45:54;4.57;;;3.20;;
1446;SDS011;717;51.522;7.266;2023-06-24T10:48:24;2.78;;;2.58;;
1446;SDS011;717;51.522;7.266;2023-06-24T10:50:52;3.25;;;2.70;;
1446;SDS011;717;51.522;7.266;2023-06-24T10:53:21;3.33;;;3.03;;
1446;SDS011;717;51.522;7.266;2023-06-24T10:55:52;3.53;;;3.22;;
1446;SDS011;717;51.522;7.266;2023-06-24T10:58:26;4.35;;;3.00;;
1446;SDS011;717;51.522;7.266;2023-06-24T11:01:05;4.38;;;3.08;;
1446;SDS011;717;51.522;7.266;2023-06-24T11:03:34;3.22;;;2.88;;
1446;SDS011;717;51.522;7.266;2023-06-24T11:06:03;3.38;;;2.85;;
1446;SDS011;717;51.522;7.266;2023-06-24T11:08:32;2.92;;;2.72;;
1446;SDS011;717;51.522;7.266;2023-06-24T11:11:03;3.65;;;2.75;;
1446;SDS011;717;51.522;7.266;2023-06-24T11:13:34;3.30;;;3.00;;
1446;SDS011;717;51.522;7.266;2023-06-24T11:16:03;3.13;;;2.83;;
1446;SDS011;717;51.522;7.266;2023-06-24T11:18:36;3.28;;;2.97;;
1446;SDS011;717;51.522;7.266;2023-06-24T11:21:08;2.80;;;2.60;;
1446;SDS011;717;51.522;7.266;2023-06-24T11:23:36;2.50;;;2.30;;
1446;SDS011;717;51.522;7.266;2023-06-24T11:26:08;3.85;;;2.40;;
1446;SDS011;717;51.522;7.266;2023-06-24T11:28:37;2.95;;;2.75;;
1446;SDS011;717;51.522;7.266;2023-06-24T11:31:06;2.72;;;2.53;;
1446;SDS011;717;51.522;7.266;2023-06-24T11:33:35;3.03;;;2.50;;
1446;SDS011;717;51.522;7.266;2023-06-24T11:36:08;3.53;;;2.55;;
1446;SDS011;717;51.522;7.266;2023-06-24T11:38:37;3.30;;;2.40;;
1446;SDS011;717;51.522;7.266;2023-06-24T11:41:06;4.10;;;3.03;;
1446;SDS011;717;51.522;7.266;2023-06-24T11:43:37;3.00;;;2.47;;
1446;SDS011;717;51.522;7.266;2023-06-24T11:46:05;3.13;;;2.30;;
1446;SDS011;717;51.522;7.266;2023-06-24T11:48:38;3.70;;;2.08;;
1446;SDS011;717;51.522;7.266;2023-06-24T11:51:11;2.97;;;2.63;;
1446;SDS011;717;51.522;7.266;2023-06-24T11:53:40;3.35;;;2.58;;
1446;SDS011;717;51.522;7.266;2023-06-24T11:56:13;2.47;;;2.28;;
1446;SDS011;717;51.522;7.266;2023-06-24T11:58:42;2.83;;;2.17;;
1446;SDS011;717;51.522;7.266;2023-06-24T12:01:11;3.75;;;2.40;;
1446;SDS011;717;51.522;7.266;2023-06-24T12:03:40;4.63;;;1.83;;
1446;SDS011;717;51.522;7.266;2023-06-24T12:06:09;2.50;;;2.30;;
1446;SDS011;717;51.522;7.266;2023-06-24T12:08:38;2.38;;;1.85;;
1446;SDS011;717;51.522;7.266;2023-06-24T12:11:06;2.22;;;2.00;;
1446;SDS011;717;51.522;7.266;2023-06-24T12:13:37;2.40;;;2.20;;
1446;SDS011;717;51.522;7.266;2023-06-24T12:16:06;2.38;;;2.17;;
1446;SDS011;717;51.522;7.266;2023-06-24T12:18:34;2.63;;;2.10;;
1446;SDS011;717;51.522;7.266;2023-06-24T12:21:03;3.40;;;2.63;;
1446;SDS011;717;51.522;7.266;2023-06-24T12:23:31;2.65;;;2.38;;
1446;SDS011;717;51.522;7.266;2023-06-24T12:26:00;2.50;;;2.30;;
1446;SDS011;717;51.522;7.266;2023-06-24T12:28:28;3.67;;;2.40;;
1446;SDS011;717;51.522;7.266;2023-06-24T12:30:59;2.45;;;2.25;;
1446;SDS011;717;51.522;7.266;2023-06-24T12:33:28;3.72;;;2.42;;
1446;SDS011;717;51.522;7.266;2023-06-24T12:35:56;3.97;;;2.67;;
1446;SDS011;717;51.522;7.266;2023-06-24T12:38:26;3.88;;;2.22;;
1446;SDS011;717;51.522;7.266;2023-06-24T12:40:54;2.40;;;2.15;;
1446;SDS011;717;51.522;7.266;2023-06-24T12:43:23;3.45;;;2.50;;
1446;SDS011;717;51.522;7.266;2023-06-24T12:45:52;3.05;;;2.45;;
1446;SDS011;717;51.522;7.266;2023-06-24T12:48:23;2.55;;;2.20;;
1446;SDS011;717;51.522;7.266;2023-06-24T12:50:52;2.25;;;2.05;;
1446;SDS011;717;51.522;7.266;2023-06-24T12:53:20;2.28;;;2.00;;
1446;SDS011;717;51.522;7.266;2023-06-24T12:55:49;2.95;;;2.35;;
1446;SDS011;717;51.522;7.266;2023-06-24T12:58:18;3.40;;;2.40;;
1446;SDS011;717;51.522;7.266;2023-06-24T13:00:48;2.65;;;2.13;;
1446;SDS011;717;51.522;7.266;2023-06-24T13:03:17;2.80;;;2.20;;
1446;SDS011;717;51.522;7.266;2023-06-24T13:05:48;2.38;;;2.08;;
1446;SDS011;717;51.522;7.266;2023-06-24T13:08:17;2.55;;;2.35;;
1446;SDS011;717;51.522;7.266;2023-06-24T13:10:45;3.65;;;3.03;;
1446;SDS011;717;51.522;7.266;2023-06-24T13:13:14;3.05;;;2.30;;
1446;SDS011;717;51.522;7.266;2023-06-24T13:15:42;2.25;;;2.05;;
1446;SDS011;717;51.522;7.266;2023-06-24T13:18:11;2.85;;;2.50;;
1446;SDS011;717;51.522;7.266;2023-06-24T13:20:39;2.65;;;2.40;;
1446;SDS011;717;51.522;7.266;2023-06-24T13:23:11;3.13;;;2.50;;
1446;SDS011;717;51.522;7.266;2023-06-24T13:25:40;5.80;;;2.50;;
1446;SDS011;717;51.522;7.266;2023-06-24T13:28:08;3.78;;;2.45;;
1446;SDS011;717;51.522;7.266;2023-06-24T13:30:37;2.80;;;2.08;;
1446;SDS011;717;51.522;7.266;2023-06-24T13:33:05;3.35;;;2.53;;
1446;SDS011;717;51.522;7.266;2023-06-24T13:35:34;3.15;;;2.53;;
1446;SDS011;717;51.522;7.266;2023-06-24T13:38:02;3.92;;;2.60;;
1446;SDS011;717;51.522;7.266;2023-06-24T13:40:35;4.15;;;2.55;;
1446;SDS011;717;51.522;7.266;2023-06-24T13:43:03;4.85;;;2.90;;
1446;SDS011;717;51.522;7.266;2023-06-24T13:45:32;2.78;;;2.58;;
1446;SDS011;717;51.522;7.266;2023-06-24T13:48:00;3.10;;;2.70;;
1446;SDS011;717;51.522;7.266;2023-06-24T13:50:29;2.60;;;2.40;;
1446;SDS011;717;51.522;7.266;2023-06-24T13:52:57;3.30;;;3.00;;
1446;SDS011;717;51.522;7.266;2023-06-24T13:55:26;3.42;;;2.80;;
1446;SDS011;717;51.522;7.266;2023-06-24T13:57:59;3.50;;;2.72;;
1446;SDS011;717;51.522;7.266;2023-06-24T14:00:27;2.85;;;2.63;;
1446;SDS011;717;51.522;7.266;2023-06-24T14:02:56;3.53;;;2.88;;
1446;SDS011;717;51.522;7.266;2023-06-24T14:05:24;3.33;;;2.90;;
1446;SDS011;717;51.522;7.266;2023-06-24T14:07:53;3.53;;;2.90;;
1446;SDS011;717;51.522;7.266;2023-06-24T14:10:21;2.95;;;2.65;;
1446;SDS011;717;51.522;7.266;2023-06-24T14:12:50;3.20;;;2.88;;
1446;SDS011;717;51.522;7.266;2023-06-24T14:15:21;3.00;;;2.70;;
1446;SDS011;717;51.522;7.266;2023-06-24T14:17:50;3.40;;;3.08;;
1446;SDS011;717;51.522;7.266;2023-06-24T14:20:19;3.72;;;2.70;;
1446;SDS011;717;51.522;7.266;2023-06-24T14:22:49;2.88;;;2.35;;
1446;SDS011;717;51.522;7.266;2023-06-24T14:25:18;3.17;;;2.85;;
1446;SDS011;717;51.522;7.266;2023-06-24T14:27:46;4.22;;;3.10;;
1446;SDS011;717;51.522;7.266;2023-06-24T14:30:15;3.20;;;2.90;;
1446;SDS011;717;51.522;7.266;2023-06-24T14:32:46;2.63;;;2.38;;
1446;SDS011;717;51.522;7.266;2023-06-24T14:35:15;3.50;;;2.60;;
1446;SDS011;717;51.522;7.266;2023-06-24T14:37:43;2.95;;;2.63;;
1446;SDS011;717;51.522;7.266;2023-06-24T14:40:12;2.95;;;2.60;;
1446;SDS011;717;51.522;7.266;2023-06-24T14:42:40;2.83;;;2.63;;
1446;SDS011;717;51.522;7.266;2023-06-24T14:45:09;3.70;;;3.00;;
1446;SDS011;717;51.522;7.266;2023-06-24T14:47:38;2.75;;;2.55;;
1446;SDS011;717;51.522;7.266;2023-06-24T14:50:09;3.00;;;2.70;;
1446;SDS011;717;51.522;7.266;2023-06-24T14:52:38;3.75;;;2.50;;
1446;SDS011;717;51.522;7.266;2023-06-24T14:55:07;3.03;;;2.70;;
1446;SDS011;717;51.522;7.266;2023-06-24T14:57:36;4.80;;;3.05;;
1446;SDS011;717;51.522;7.266;2023-06-24T15:00:06;3.17;;;2.72;;
1446;SDS011;717;51.522;7.266;2023-06-24T15:02:36;4.60;;;2.75;;
1446;SDS011;717;51.522;7.266;2023-06-24T15:05:04;3.72;;;2.80;;
1446;SDS011;717;51.522;7.266;2023-06-24T15:07:36;3.85;;;2.70;;
1446;SDS011;717;51.522;7.266;2023-06-24T15:10:05;3.55;;;2.85;;
1446;SDS011;717;51.522;7.266;2023-06-24T15:12:35;2.92;;;2.63;;
1446;SDS011;717;51.522;7.266;2023-06-24T15:15:05;2.78;;;2.58;;
1446;SDS011;717;51.522;7.266;2023-06-24T15:17:34;3.05;;;2.60;;
1446;SDS011;717;51.522;7.266;2023-06-24T15:20:06;3.63;;;2.95;;
1446;SDS011;717;51.522;7.266;2023-06-24T15:22:38;4.05;;;2.63;;
1446;SDS011;717;51.522;7.266;2023-06-24T15:25:08;3.72;;;2.50;;
1446;SDS011;717;51.522;7.266;2023-06-24T15:27:36;2.95;;;2.70;;
1446;SDS011;717;51.522;7.266;2023-06-24T15:30:06;3.25;;;2.72;;
1446;SDS011;717;51.522;7.266;2023-06-24T15:32:35;3.25;;;2.70;;
1446;SDS011;717;51.522;7.266;2023-06-24T15:35:04;2.85;;;2.50;;
1446;SDS011;717;51.522;7.266;2023-06-24T15:37:34;3.75;;;2.65;;
1446;SDS011;717;51.522;7.266;2023-06-24T15:40:05;3.40;;;3.10;;
1446;SDS011;717;51.522;7.266;2023-06-24T15:42:35;4.90;;;2.78;;
1446;SDS011;717;51.522;7.266;2023-06-24T15:45:05;3.53;;;2.80;;
1446;SDS011;717;51.522;7.266;2023-06-24T15:47:34;4.07;;;2.50;;
1446;SDS011;717;51.522;7.266;2023-06-24T15:50:03;3.55;;;3.08;;